RMY weather

Brooks Field
Marshall, Michigan, United States

Public forecast

Using degrees Fahrenheit for public forecast. Weather courtesy of forecast.io.

Current aviation weather report (METAR) for Brooks Field

Retrieved 2019/10/17 09:35 UTC (4 minutes ago):

KRMY 170935Z AUTO 29004KT 10SM CLR 05/02 A2991 RMK AO2 T00450024

Closest aviation forecast (TAF) to Brooks Field

Closest forecast is W K Kellogg Airport, 13.6 nm (25.1 km) WNW. Retrieved 2019/10/17 06:42 UTC (3 hours ago):

TAF KBTL 170540Z 1706/1806 31010KT P6SM BKN250 FM171300 31009KT P6SM BKN040 FM171600 32012KT P6SM BKN026 FM172200 32011KT P6SM SCT030